sensor_id;sensor_type;location;lat;lon;timestamp;P1;durP1;ratioP1;P2;durP2;ratioP2
73642;SDS011;61938;48.652;9.292;2024-01-06T00:00:29;6.40;;;2.50;;
73642;SDS011;61938;48.652;9.292;2024-01-06T00:02:55;7.05;;;2.72;;
73642;SDS011;61938;48.652;9.292;2024-01-06T00:05:20;14.50;;;3.78;;
73642;SDS011;61938;48.652;9.292;2024-01-06T00:07:46;6.88;;;2.88;;
73642;SDS011;61938;48.652;9.292;2024-01-06T00:10:11;6.43;;;2.85;;
73642;SDS011;61938;48.652;9.292;2024-01-06T00:12:37;7.50;;;2.95;;
73642;SDS011;61938;48.652;9.292;2024-01-06T00:15:03;5.22;;;2.85;;
73642;SDS011;61938;48.652;9.292;2024-01-06T00:17:29;7.15;;;2.78;;
73642;SDS011;61938;48.652;9.292;2024-01-06T00:19:54;9.23;;;3.88;;
73642;SDS011;61938;48.652;9.292;2024-01-06T00:22:20;5.70;;;2.90;;
73642;SDS011;61938;48.652;9.292;2024-01-06T00:24:46;11.52;;;3.35;;
73642;SDS011;61938;48.652;9.292;2024-01-06T00:27:11;5.70;;;3.08;;
73642;SDS011;61938;48.652;9.292;2024-01-06T00:29:38;6.07;;;2.53;;
73642;SDS011;61938;48.652;9.292;2024-01-06T00:32:04;5.95;;;2.70;;
73642;SDS011;61938;48.652;9.292;2024-01-06T00:34:30;10.15;;;2.55;;
73642;SDS011;61938;48.652;9.292;2024-01-06T00:36:55;7.95;;;2.58;;
73642;SDS011;61938;48.652;9.292;2024-01-06T00:39:21;8.70;;;2.92;;
73642;SDS011;61938;48.652;9.292;2024-01-06T00:41:46;6.13;;;2.40;;
73642;SDS011;61938;48.652;9.292;2024-01-06T00:44:12;5.45;;;2.55;;
73642;SDS011;61938;48.652;9.292;2024-01-06T00:46:37;5.72;;;2.70;;
73642;SDS011;61938;48.652;9.292;2024-01-06T00:49:04;8.15;;;2.65;;
73642;SDS011;61938;48.652;9.292;2024-01-06T00:51:29;6.40;;;2.50;;
73642;SDS011;61938;48.652;9.292;2024-01-06T00:53:55;7.68;;;2.70;;
73642;SDS011;61938;48.652;9.292;2024-01-06T00:56:21;7.80;;;3.13;;
73642;SDS011;61938;48.652;9.292;2024-01-06T00:58:47;9.07;;;3.15;;
73642;SDS011;61938;48.652;9.292;2024-01-06T01:01:12;12.30;;;3.97;;
73642;SDS011;61938;48.652;9.292;2024-01-06T01:03:38;14.18;;;4.85;;
73642;SDS011;61938;48.652;9.292;2024-01-06T01:06:03;14.45;;;4.78;;
73642;SDS011;61938;48.652;9.292;2024-01-06T01:08:29;10.63;;;5.32;;
73642;SDS011;61938;48.652;9.292;2024-01-06T01:10:55;10.35;;;5.28;;
73642;SDS011;61938;48.652;9.292;2024-01-06T01:13:21;13.38;;;5.53;;
73642;SDS011;61938;48.652;9.292;2024-01-06T01:15:47;10.73;;;4.45;;
73642;SDS011;61938;48.652;9.292;2024-01-06T01:18:13;12.50;;;5.05;;
73642;SDS011;61938;48.652;9.292;2024-01-06T01:20:39;9.63;;;4.35;;
73642;SDS011;61938;48.652;9.292;2024-01-06T01:23:06;12.48;;;4.32;;
73642;SDS011;61938;48.652;9.292;2024-01-06T01:25:32;10.55;;;4.53;;
73642;SDS011;61938;48.652;9.292;2024-01-06T01:27:58;11.88;;;5.80;;
73642;SDS011;61938;48.652;9.292;2024-01-06T01:30:24;15.40;;;6.80;;
73642;SDS011;61938;48.652;9.292;2024-01-06T01:32:49;10.60;;;5.18;;
73642;SDS011;61938;48.652;9.292;2024-01-06T01:35:15;12.02;;;5.18;;
73642;SDS011;61938;48.652;9.292;2024-01-06T01:37:40;10.50;;;5.10;;
73642;SDS011;61938;48.652;9.292;2024-01-06T01:40:06;9.73;;;4.70;;
73642;SDS011;61938;48.652;9.292;2024-01-06T01:42:32;9.57;;;4.80;;
73642;SDS011;61938;48.652;9.292;2024-01-06T01:44:58;10.32;;;4.72;;
73642;SDS011;61938;48.652;9.292;2024-01-06T01:47:24;9.35;;;4.70;;
73642;SDS011;61938;48.652;9.292;2024-01-06T01:49:51;11.07;;;4.68;;
73642;SDS011;61938;48.652;9.292;2024-01-06T01:52:19;10.07;;;5.00;;
73642;SDS011;61938;48.652;9.292;2024-01-06T01:54:45;9.68;;;5.00;;
73642;SDS011;61938;48.652;9.292;2024-01-06T01:57:11;7.45;;;3.78;;
73642;SDS011;61938;48.652;9.292;2024-01-06T01:59:38;13.23;;;4.85;;
73642;SDS011;61938;48.652;9.292;2024-01-06T02:02:04;10.25;;;4.75;;
73642;SDS011;61938;48.652;9.292;2024-01-06T02:04:31;13.00;;;4.63;;
73642;SDS011;61938;48.652;9.292;2024-01-06T02:06:56;10.88;;;4.10;;
73642;SDS011;61938;48.652;9.292;2024-01-06T02:09:22;9.50;;;4.07;;
73642;SDS011;61938;48.652;9.292;2024-01-06T02:11:51;14.00;;;4.28;;
73642;SDS011;61938;48.652;9.292;2024-01-06T02:14:17;8.85;;;3.65;;
73642;SDS011;61938;48.652;9.292;2024-01-06T02:16:43;9.52;;;3.95;;
73642;SDS011;61938;48.652;9.292;2024-01-06T02:19:08;8.73;;;4.10;;
73642;SDS011;61938;48.652;9.292;2024-01-06T02:21:36;10.00;;;4.35;;
73642;SDS011;61938;48.652;9.292;2024-01-06T02:24:07;9.33;;;4.03;;
73642;SDS011;61938;48.652;9.292;2024-01-06T02:26:32;8.02;;;4.25;;
73642;SDS011;61938;48.652;9.292;2024-01-06T02:28:58;14.70;;;4.75;;
73642;SDS011;61938;48.652;9.292;2024-01-06T02:31:23;11.75;;;4.50;;
73642;SDS011;61938;48.652;9.292;2024-01-06T02:33:49;12.63;;;4.20;;
73642;SDS011;61938;48.652;9.292;2024-01-06T02:36:14;8.93;;;4.55;;
73642;SDS011;61938;48.652;9.292;2024-01-06T02:38:40;9.23;;;4.90;;
73642;SDS011;61938;48.652;9.292;2024-01-06T02:41:05;12.55;;;4.65;;
73642;SDS011;61938;48.652;9.292;2024-01-06T02:43:31;10.68;;;3.95;;
73642;SDS011;61938;48.652;9.292;2024-01-06T02:45:56;10.15;;;4.00;;
73642;SDS011;61938;48.652;9.292;2024-01-06T02:48:22;6.53;;;3.72;;
73642;SDS011;61938;48.652;9.292;2024-01-06T02:50:47;12.48;;;4.07;;
73642;SDS011;61938;48.652;9.292;2024-01-06T02:53:13;8.23;;;4.20;;
73642;SDS011;61938;48.652;9.292;2024-01-06T02:55:38;7.10;;;3.72;;
73642;SDS011;61938;48.652;9.292;2024-01-06T02:58:04;5.95;;;3.53;;
73642;SDS011;61938;48.652;9.292;2024-01-06T03:00:30;7.60;;;4.03;;
73642;SDS011;61938;48.652;9.292;2024-01-06T03:02:55;7.50;;;3.45;;
73642;SDS011;61938;48.652;9.292;2024-01-06T03:05:21;7.05;;;3.58;;
73642;SDS011;61938;48.652;9.292;2024-01-06T03:07:46;7.03;;;4.18;;
73642;SDS011;61938;48.652;9.292;2024-01-06T03:10:11;10.02;;;3.90;;
73642;SDS011;61938;48.652;9.292;2024-01-06T03:12:37;12.95;;;4.55;;
73642;SDS011;61938;48.652;9.292;2024-01-06T03:15:03;11.07;;;3.83;;
73642;SDS011;61938;48.652;9.292;2024-01-06T03:17:28;6.82;;;3.72;;
73642;SDS011;61938;48.652;9.292;2024-01-06T03:19:54;9.68;;;3.88;;
73642;SDS011;61938;48.652;9.292;2024-01-06T03:22:19;11.50;;;4.35;;
73642;SDS011;61938;48.652;9.292;2024-01-06T03:24:45;8.98;;;3.40;;
73642;SDS011;61938;48.652;9.292;2024-01-06T03:27:11;11.40;;;4.00;;
73642;SDS011;61938;48.652;9.292;2024-01-06T03:29:37;9.48;;;3.80;;
73642;SDS011;61938;48.652;9.292;2024-01-06T03:32:03;8.90;;;3.40;;
73642;SDS011;61938;48.652;9.292;2024-01-06T03:34:29;8.30;;;3.08;;
73642;SDS011;61938;48.652;9.292;2024-01-06T03:36:54;8.27;;;4.05;;
73642;SDS011;61938;48.652;9.292;2024-01-06T03:39:20;9.82;;;3.53;;
73642;SDS011;61938;48.652;9.292;2024-01-06T03:41:45;6.90;;;3.50;;
73642;SDS011;61938;48.652;9.292;2024-01-06T03:44:13;10.63;;;3.47;;
73642;SDS011;61938;48.652;9.292;2024-01-06T03:46:38;7.13;;;3.38;;
73642;SDS011;61938;48.652;9.292;2024-01-06T03:49:04;9.45;;;3.97;;
73642;SDS011;61938;48.652;9.292;2024-01-06T03:51:30;9.02;;;3.75;;
73642;SDS011;61938;48.652;9.292;2024-01-06T03:53:55;7.43;;;3.42;;
73642;SDS011;61938;48.652;9.292;2024-01-06T03:56:21;8.35;;;3.15;;
73642;SDS011;61938;48.652;9.292;2024-01-06T03:58:46;10.23;;;3.35;;
73642;SDS011;61938;48.652;9.292;2024-01-06T04:01:12;10.77;;;3.60;;
73642;SDS011;61938;48.652;9.292;2024-01-06T04:03:38;7.03;;;3.22;;
73642;SDS011;61938;48.652;9.292;2024-01-06T04:06:05;9.60;;;3.47;;
73642;SDS011;61938;48.652;9.292;2024-01-06T04:08:31;10.88;;;3.70;;
73642;SDS011;61938;48.652;9.292;2024-01-06T04:10:56;7.47;;;3.80;;
73642;SDS011;61938;48.652;9.292;2024-01-06T04:13:22;8.27;;;3.35;;
73642;SDS011;61938;48.652;9.292;2024-01-06T04:15:49;11.63;;;3.00;;
73642;SDS011;61938;48.652;9.292;2024-01-06T04:18:15;6.72;;;3.40;;
73642;SDS011;61938;48.652;9.292;2024-01-06T04:20:41;5.82;;;3.33;;
73642;SDS011;61938;48.652;9.292;2024-01-06T04:23:06;5.95;;;3.00;;
73642;SDS011;61938;48.652;9.292;2024-01-06T04:25:32;7.15;;;3.28;;
73642;SDS011;61938;48.652;9.292;2024-01-06T04:27:57;10.80;;;3.47;;
73642;SDS011;61938;48.652;9.292;2024-01-06T04:30:23;9.10;;;3.00;;
73642;SDS011;61938;48.652;9.292;2024-01-06T04:32:50;8.43;;;3.10;;
73642;SDS011;61938;48.652;9.292;2024-01-06T04:35:15;7.85;;;3.03;;
73642;SDS011;61938;48.652;9.292;2024-01-06T04:37:41;9.32;;;3.03;;
73642;SDS011;61938;48.652;9.292;2024-01-06T04:40:07;6.80;;;3.40;;
73642;SDS011;61938;48.652;9.292;2024-01-06T04:42:33;6.78;;;3.33;;
73642;SDS011;61938;48.652;9.292;2024-01-06T04:44:58;6.30;;;2.85;;
73642;SDS011;61938;48.652;9.292;2024-01-06T04:47:24;7.65;;;2.88;;
73642;SDS011;61938;48.652;9.292;2024-01-06T04:49:50;5.00;;;2.78;;
73642;SDS011;61938;48.652;9.292;2024-01-06T04:52:15;7.88;;;2.85;;
73642;SDS011;61938;48.652;9.292;2024-01-06T04:54:41;6.68;;;2.72;;
73642;SDS011;61938;48.652;9.292;2024-01-06T04:57:06;7.60;;;3.38;;
73642;SDS011;61938;48.652;9.292;2024-01-06T04:59:32;9.35;;;3.30;;
73642;SDS011;61938;48.652;9.292;2024-01-06T05:01:57;9.75;;;3.25;;
73642;SDS011;61938;48.652;9.292;2024-01-06T05:04:23;8.05;;;2.83;;
73642;SDS011;61938;48.652;9.292;2024-01-06T05:06:50;6.63;;;3.00;;
73642;SDS011;61938;48.652;9.292;2024-01-06T05:09:17;10.93;;;3.30;;
73642;SDS011;61938;48.652;9.292;2024-01-06T05:11:45;7.25;;;3.53;;
73642;SDS011;61938;48.652;9.292;2024-01-06T05:14:11;8.27;;;3.58;;
73642;SDS011;61938;48.652;9.292;2024-01-06T05:16:37;8.98;;;3.35;;
73642;SDS011;61938;48.652;9.292;2024-01-06T05:19:02;9.90;;;3.85;;
73642;SDS011;61938;48.652;9.292;2024-01-06T05:21:28;10.27;;;4.25;;
73642;SDS011;61938;48.652;9.292;2024-01-06T05:23:54;10.73;;;4.10;;
73642;SDS011;61938;48.652;9.292;2024-01-06T05:26:19;8.70;;;4.10;;
73642;SDS011;61938;48.652;9.292;2024-01-06T05:28:45;8.85;;;4.13;;
73642;SDS011;61938;48.652;9.292;2024-01-06T05:31:10;11.90;;;4.35;;
73642;SDS011;61938;48.652;9.292;2024-01-06T05:33:36;11.63;;;4.10;;
73642;SDS011;61938;48.652;9.292;2024-01-06T05:36:01;8.65;;;4.55;;
73642;SDS011;61938;48.652;9.292;2024-01-06T05:38:27;8.68;;;4.38;;
73642;SDS011;61938;48.652;9.292;2024-01-06T05:40:53;13.98;;;5.35;;
73642;SDS011;61938;48.652;9.292;2024-01-06T05:43:18;9.48;;;4.05;;
73642;SDS011;61938;48.652;9.292;2024-01-06T05:45:44;11.23;;;5.45;;
73642;SDS011;61938;48.652;9.292;2024-01-06T05:48:10;10.93;;;4.35;;
73642;SDS011;61938;48.652;9.292;2024-01-06T05:50:39;10.40;;;4.00;;
73642;SDS011;61938;48.652;9.292;2024-01-06T05:53:04;8.88;;;4.05;;
73642;SDS011;61938;48.652;9.292;2024-01-06T05:55:30;10.80;;;4.35;;
73642;SDS011;61938;48.652;9.292;2024-01-06T05:57:56;10.38;;;4.75;;
73642;SDS011;61938;48.652;9.292;2024-01-06T06:00:21;11.13;;;4.40;;
73642;SDS011;61938;48.652;9.292;2024-01-06T06:02:47;11.85;;;4.05;;
73642;SDS011;61938;48.652;9.292;2024-01-06T06:05:13;9.07;;;4.15;;
73642;SDS011;61938;48.652;9.292;2024-01-06T06:07:38;9.07;;;3.95;;
73642;SDS011;61938;48.652;9.292;2024-01-06T06:10:05;10.52;;;4.05;;
73642;SDS011;61938;48.652;9.292;2024-01-06T06:12:35;8.23;;;4.38;;
73642;SDS011;61938;48.652;9.292;2024-01-06T06:15:01;10.02;;;4.60;;
73642;SDS011;61938;48.652;9.292;2024-01-06T06:17:29;12.82;;;4.35;;
73642;SDS011;61938;48.652;9.292;2024-01-06T06:19:55;8.80;;;4.47;;
73642;SDS011;61938;48.652;9.292;2024-01-06T06:22:22;9.57;;;4.22;;
73642;SDS011;61938;48.652;9.292;2024-01-06T06:24:48;11.10;;;4.65;;
73642;SDS011;61938;48.652;9.292;2024-01-06T06:27:13;9.40;;;4.43;;
73642;SDS011;61938;48.652;9.292;2024-01-06T06:29:39;12.27;;;5.90;;
73642;SDS011;61938;48.652;9.292;2024-01-06T06:32:04;12.90;;;5.00;;
73642;SDS011;61938;48.652;9.292;2024-01-06T06:34:30;10.63;;;5.50;;
73642;SDS011;61938;48.652;9.292;2024-01-06T06:36:55;13.88;;;6.03;;
73642;SDS011;61938;48.652;9.292;2024-01-06T06:39:21;10.40;;;4.72;;
73642;SDS011;61938;48.652;9.292;2024-01-06T06:41:46;8.90;;;4.53;;
73642;SDS011;61938;48.652;9.292;2024-01-06T06:44:12;15.00;;;4.20;;
73642;SDS011;61938;48.652;9.292;2024-01-06T06:46:37;9.48;;;4.40;;
73642;SDS011;61938;48.652;9.292;2024-01-06T06:49:03;9.95;;;4.13;;
73642;SDS011;61938;48.652;9.292;2024-01-06T06:51:28;9.10;;;4.20;;
73642;SDS011;61938;48.652;9.292;2024-01-06T06:53:55;14.60;;;4.47;;
73642;SDS011;61938;48.652;9.292;2024-01-06T06:56:21;6.82;;;3.60;;
73642;SDS011;61938;48.652;9.292;2024-01-06T06:58:47;8.65;;;4.68;;
73642;SDS011;61938;48.652;9.292;2024-01-06T07:01:16;7.43;;;3.70;;
73642;SDS011;61938;48.652;9.292;2024-01-06T07:03:41;6.70;;;3.78;;
73642;SDS011;61938;48.652;9.292;2024-01-06T07:06:07;12.95;;;4.35;;
73642;SDS011;61938;48.652;9.292;2024-01-06T07:08:32;9.30;;;3.78;;
73642;SDS011;61938;48.652;9.292;2024-01-06T07:10:58;10.80;;;4.22;;
73642;SDS011;61938;48.652;9.292;2024-01-06T07:13:23;12.52;;;3.60;;
73642;SDS011;61938;48.652;9.292;2024-01-06T07:15:49;6.82;;;3.60;;
73642;SDS011;61938;48.652;9.292;2024-01-06T07:18:15;7.43;;;3.45;;
73642;SDS011;61938;48.652;9.292;2024-01-06T07:20:40;8.63;;;3.10;;
73642;SDS011;61938;48.652;9.292;2024-01-06T07:23:06;6.20;;;3.25;;
73642;SDS011;61938;48.652;9.292;2024-01-06T07:25:31;10.50;;;3.22;;
73642;SDS011;61938;48.652;9.292;2024-01-06T07:27:57;10.82;;;3.03;;
73642;SDS011;61938;48.652;9.292;2024-01-06T07:30:22;8.93;;;3.17;;
73642;SDS011;61938;48.652;9.292;2024-01-06T07:32:48;7.80;;;3.08;;
73642;SDS011;61938;48.652;9.292;2024-01-06T07:35:15;7.82;;;3.00;;
73642;SDS011;61938;48.652;9.292;2024-01-06T07:37:41;6.70;;;3.45;;
73642;SDS011;61938;48.652;9.292;2024-01-06T07:40:07;5.72;;;2.65;;
73642;SDS011;61938;48.652;9.292;2024-01-06T07:42:33;8.32;;;3.15;;
73642;SDS011;61938;48.652;9.292;2024-01-06T07:44:58;8.15;;;3.92;;
73642;SDS011;61938;48.652;9.292;2024-01-06T07:47:24;7.68;;;3.63;;
73642;SDS011;61938;48.652;9.292;2024-01-06T07:49:49;7.07;;;3.00;;
73642;SDS011;61938;48.652;9.292;2024-01-06T07:52:15;7.75;;;3.35;;
73642;SDS011;61938;48.652;9.292;2024-01-06T07:54:41;5.85;;;3.40;;
73642;SDS011;61938;48.652;9.292;2024-01-06T07:57:07;10.82;;;4.10;;
73642;SDS011;61938;48.652;9.292;2024-01-06T07:59:32;6.50;;;3.50;;
73642;SDS011;61938;48.652;9.292;2024-01-06T08:01:58;8.23;;;3.30;;
73642;SDS011;61938;48.652;9.292;2024-01-06T08:04:23;9.50;;;4.40;;
73642;SDS011;61938;48.652;9.292;2024-01-06T08:06:49;8.88;;;3.55;;
73642;SDS011;61938;48.652;9.292;2024-01-06T08:09:14;15.68;;;4.47;;
73642;SDS011;61938;48.652;9.292;2024-01-06T08:11:40;10.00;;;3.40;;
73642;SDS011;61938;48.652;9.292;2024-01-06T08:14:07;5.68;;;3.15;;
73642;SDS011;61938;48.652;9.292;2024-01-06T08:16:33;7.50;;;4.28;;
73642;SDS011;61938;48.652;9.292;2024-01-06T08:18:58;13.63;;;5.18;;
73642;SDS011;61938;48.652;9.292;2024-01-06T08:21:24;15.60;;;5.60;;
73642;SDS011;61938;48.652;9.292;2024-01-06T08:23:50;12.20;;;5.45;;
73642;SDS011;61938;48.652;9.292;2024-01-06T08:26:15;13.23;;;5.00;;
73642;SDS011;61938;48.652;9.292;2024-01-06T08:28:41;10.73;;;4.10;;
73642;SDS011;61938;48.652;9.292;2024-01-06T08:31:06;10.05;;;4.38;;
73642;SDS011;61938;48.652;9.292;2024-01-06T08:33:32;11.63;;;4.65;;
73642;SDS011;61938;48.652;9.292;2024-01-06T08:35:57;6.88;;;4.22;;
73642;SDS011;61938;48.652;9.292;2024-01-06T08:38:23;9.20;;;4.07;;
73642;SDS011;61938;48.652;9.292;2024-01-06T08:40:48;9.20;;;3.92;;
73642;SDS011;61938;48.652;9.292;2024-01-06T08:43:15;7.57;;;3.33;;
73642;SDS011;61938;48.652;9.292;2024-01-06T08:45:41;15.35;;;3.25;;
73642;SDS011;61938;48.652;9.292;2024-01-06T08:48:06;5.40;;;2.80;;
73642;SDS011;61938;48.652;9.292;2024-01-06T08:50:32;6.78;;;3.38;;
73642;SDS011;61938;48.652;9.292;2024-01-06T08:52:58;8.90;;;2.90;;
73642;SDS011;61938;48.652;9.292;2024-01-06T08:55:23;8.20;;;2.78;;
73642;SDS011;61938;48.652;9.292;2024-01-06T08:57:49;11.30;;;3.42;;
73642;SDS011;61938;48.652;9.292;2024-01-06T09:00:14;8.13;;;3.17;;
73642;SDS011;61938;48.652;9.292;2024-01-06T09:02:41;13.20;;;3.38;;
73642;SDS011;61938;48.652;9.292;2024-01-06T09:05:06;7.30;;;3.88;;
73642;SDS011;61938;48.652;9.292;2024-01-06T09:07:32;12.18;;;4.95;;
73642;SDS011;61938;48.652;9.292;2024-01-06T09:09:57;11.60;;;4.20;;
73642;SDS011;61938;48.652;9.292;2024-01-06T09:12:23;8.48;;;4.25;;
73642;SDS011;61938;48.652;9.292;2024-01-06T09:14:48;8.55;;;3.90;;
73642;SDS011;61938;48.652;9.292;2024-01-06T09:17:14;7.28;;;3.70;;
73642;SDS011;61938;48.652;9.292;2024-01-06T09:19:40;7.03;;;3.28;;
73642;SDS011;61938;48.652;9.292;2024-01-06T09:22:05;8.57;;;3.15;;
73642;SDS011;61938;48.652;9.292;2024-01-06T09:24:31;7.95;;;4.00;;
73642;SDS011;61938;48.652;9.292;2024-01-06T09:26:58;8.10;;;4.60;;
73642;SDS011;61938;48.652;9.292;2024-01-06T09:29:24;11.52;;;6.55;;
73642;SDS011;61938;48.652;9.292;2024-01-06T09:31:49;14.40;;;7.10;;
73642;SDS011;61938;48.652;9.292;2024-01-06T09:34:15;7.60;;;4.47;;
73642;SDS011;61938;48.652;9.292;2024-01-06T09:36:40;7.80;;;3.97;;
73642;SDS011;61938;48.652;9.292;2024-01-06T09:39:06;9.07;;;2.83;;
73642;SDS011;61938;48.652;9.292;2024-01-06T09:41:33;6.03;;;3.40;;
73642;SDS011;61938;48.652;9.292;2024-01-06T09:43:58;8.63;;;4.43;;
73642;SDS011;61938;48.652;9.292;2024-01-06T09:46:24;10.40;;;4.35;;
73642;SDS011;61938;48.652;9.292;2024-01-06T09:48:54;7.82;;;4.65;;
73642;SDS011;61938;48.652;9.292;2024-01-06T09:51:21;8.55;;;4.05;;
73642;SDS011;61938;48.652;9.292;2024-01-06T09:53:48;9.05;;;3.95;;
73642;SDS011;61938;48.652;9.292;2024-01-06T09:56:17;7.72;;;3.83;;
73642;SDS011;61938;48.652;9.292;2024-01-06T09:58:43;10.60;;;4.60;;
73642;SDS011;61938;48.652;9.292;2024-01-06T10:01:10;21.00;;;6.15;;
73642;SDS011;61938;48.652;9.292;2024-01-06T10:03:37;9.60;;;4.60;;
73642;SDS011;61938;48.652;9.292;2024-01-06T10:06:03;7.47;;;4.00;;
73642;SDS011;61938;48.652;9.292;2024-01-06T10:08:29;11.00;;;2.90;;
73642;SDS011;61938;48.652;9.292;2024-01-06T10:10:57;6.28;;;3.17;;
73642;SDS011;61938;48.652;9.292;2024-01-06T10:13:23;4.82;;;2.67;;
73642;SDS011;61938;48.652;9.292;2024-01-06T10:15:49;4.93;;;2.95;;
73642;SDS011;61938;48.652;9.292;2024-01-06T10:18:16;6.63;;;2.70;;
73642;SDS011;61938;48.652;9.292;2024-01-06T10:20:41;6.70;;;3.20;;
73642;SDS011;61938;48.652;9.292;2024-01-06T10:23:09;4.35;;;2.40;;
73642;SDS011;61938;48.652;9.292;2024-01-06T10:25:35;4.13;;;2.22;;
73642;SDS011;61938;48.652;9.292;2024-01-06T10:28:00;6.50;;;3.30;;
73642;SDS011;61938;48.652;9.292;2024-01-06T10:30:29;6.70;;;3.63;;
73642;SDS011;61938;48.652;9.292;2024-01-06T10:32:54;10.77;;;3.67;;
73642;SDS011;61938;48.652;9.292;2024-01-06T10:35:20;4.95;;;2.92;;
73642;SDS011;61938;48.652;9.292;2024-01-06T10:37:45;8.68;;;4.28;;
73642;SDS011;61938;48.652;9.292;2024-01-06T10:40:13;7.93;;;3.88;;
73642;SDS011;61938;48.652;9.292;2024-01-06T10:42:42;9.60;;;4.55;;
73642;SDS011;61938;48.652;9.292;2024-01-06T10:45:09;8.80;;;3.38;;
73642;SDS011;61938;48.652;9.292;2024-01-06T10:47:40;9.15;;;3.28;;
73642;SDS011;61938;48.652;9.292;2024-01-06T10:50:07;6.57;;;2.90;;
73642;SDS011;61938;48.652;9.292;2024-01-06T10:52:33;5.78;;;3.22;;
73642;SDS011;61938;48.652;9.292;2024-01-06T10:55:02;7.70;;;3.08;;
73642;SDS011;61938;48.652;9.292;2024-01-06T10:57:30;4.68;;;2.88;;
73642;SDS011;61938;48.652;9.292;2024-01-06T10:59:59;6.07;;;3.25;;
73642;SDS011;61938;48.652;9.292;2024-01-06T11:02:25;6.72;;;2.88;;
73642;SDS011;61938;48.652;9.292;2024-01-06T11:04:52;4.40;;;2.17;;
73642;SDS011;61938;48.652;9.292;2024-01-06T11:07:18;4.30;;;2.25;;
73642;SDS011;61938;48.652;9.292;2024-01-06T11:09:59;4.63;;;2.47;;
73642;SDS011;61938;48.652;9.292;2024-01-06T11:12:31;7.45;;;2.78;;
73642;SDS011;61938;48.652;9.292;2024-01-06T11:14:58;4.45;;;2.65;;
73642;SDS011;61938;48.652;9.292;2024-01-06T11:20:23;7.18;;;3.17;;
73642;SDS011;61938;48.652;9.292;2024-01-06T11:22:52;5.90;;;3.10;;
73642;SDS011;61938;48.652;9.292;2024-01-06T11:25:18;13.88;;;6.15;;
73642;SDS011;61938;48.652;9.292;2024-01-06T11:27:46;11.52;;;5.22;;
73642;SDS011;61938;48.652;9.292;2024-01-06T11:30:22;13.02;;;4.30;;
73642;SDS011;61938;48.652;9.292;2024-01-06T11:32:50;5.97;;;3.05;;
73642;SDS011;61938;48.652;9.292;2024-01-06T11:35:18;10.48;;;4.28;;
73642;SDS011;61938;48.652;9.292;2024-01-06T11:40:10;7.40;;;3.60;;
73642;SDS011;61938;48.652;9.292;2024-01-06T11:45:35;6.40;;;2.80;;
73642;SDS011;61938;48.652;9.292;2024-01-06T11:48:02;5.75;;;2.83;;
73642;SDS011;61938;48.652;9.292;2024-01-06T11:50:33;10.90;;;3.03;;
73642;SDS011;61938;48.652;9.292;2024-01-06T11:53:00;5.38;;;2.30;;
73642;SDS011;61938;48.652;9.292;2024-01-06T11:55:26;5.43;;;2.50;;
73642;SDS011;61938;48.652;9.292;2024-01-06T11:57:57;6.60;;;2.00;;
73642;SDS011;61938;48.652;9.292;2024-01-06T12:00:26;4.30;;;2.10;;
73642;SDS011;61938;48.652;9.292;2024-01-06T12:02:56;2.83;;;1.73;;
73642;SDS011;61938;48.652;9.292;2024-01-06T12:05:26;4.47;;;1.70;;
73642;SDS011;61938;48.652;9.292;2024-01-06T12:07:55;3.00;;;1.92;;
73642;SDS011;61938;48.652;9.292;2024-01-06T12:10:23;21.87;;;10.17;;
73642;SDS011;61938;48.652;9.292;2024-01-06T12:12:56;19.02;;;7.93;;
73642;SDS011;61938;48.652;9.292;2024-01-06T12:15:26;10.93;;;5.40;;
73642;SDS011;61938;48.652;9.292;2024-01-06T12:17:53;7.18;;;4.00;;
73642;SDS011;61938;48.652;9.292;2024-01-06T12:20:19;9.57;;;4.47;;
73642;SDS011;61938;48.652;9.292;2024-01-06T12:22:46;6.28;;;3.55;;
73642;SDS011;61938;48.652;9.292;2024-01-06T12:25:11;7.63;;;3.45;;
73642;SDS011;61938;48.652;9.292;2024-01-06T12:27:43;4.97;;;3.20;;
73642;SDS011;61938;48.652;9.292;2024-01-06T12:30:13;8.38;;;3.88;;
73642;SDS011;61938;48.652;9.292;2024-01-06T12:32:42;7.97;;;3.85;;
73642;SDS011;61938;48.652;9.292;2024-01-06T12:35:09;7.32;;;3.63;;
73642;SDS011;61938;48.652;9.292;2024-01-06T12:37:35;5.78;;;3.05;;
73642;SDS011;61938;48.652;9.292;2024-01-06T12:40:01;4.82;;;2.50;;
73642;SDS011;61938;48.652;9.292;2024-01-06T12:42:26;5.80;;;2.65;;
73642;SDS011;61938;48.652;9.292;2024-01-06T12:44:52;8.25;;;2.42;;
73642;SDS011;61938;48.652;9.292;2024-01-06T12:47:17;4.25;;;2.33;;
73642;SDS011;61938;48.652;9.292;2024-01-06T12:49:43;4.55;;;2.42;;
73642;SDS011;61938;48.652;9.292;2024-01-06T12:52:09;3.75;;;1.92;;
73642;SDS011;61938;48.652;9.292;2024-01-06T12:54:34;3.70;;;2.10;;
73642;SDS011;61938;48.652;9.292;2024-01-06T12:57:00;4.93;;;2.08;;
73642;SDS011;61938;48.652;9.292;2024-01-06T12:59:25;3.33;;;2.13;;
73642;SDS011;61938;48.652;9.292;2024-01-06T13:01:51;4.20;;;2.55;;
73642;SDS011;61938;48.652;9.292;2024-01-06T13:04:16;7.03;;;2.80;;
73642;SDS011;61938;48.652;9.292;2024-01-06T13:06:42;4.18;;;2.50;;
73642;SDS011;61938;48.652;9.292;2024-01-06T13:09:07;5.05;;;2.60;;
73642;SDS011;61938;48.652;9.292;2024-01-06T13:11:36;4.40;;;2.17;;
73642;SDS011;61938;48.652;9.292;2024-01-06T13:14:02;3.55;;;2.10;;
73642;SDS011;61938;48.652;9.292;2024-01-06T13:16:28;3.13;;;2.10;;
73642;SDS011;61938;48.652;9.292;2024-01-06T13:18:53;3.42;;;2.28;;
73642;SDS011;61938;48.652;9.292;2024-01-06T13:21:19;3.88;;;2.00;;
73642;SDS011;61938;48.652;9.292;2024-01-06T13:23:45;3.88;;;2.33;;
73642;SDS011;61938;48.652;9.292;2024-01-06T13:26:11;3.60;;;2.17;;
73642;SDS011;61938;48.652;9.292;2024-01-06T13:28:36;5.60;;;2.88;;
73642;SDS011;61938;48.652;9.292;2024-01-06T13:31:02;5.45;;;2.90;;
73642;SDS011;61938;48.652;9.292;2024-01-06T13:33:28;5.57;;;3.03;;
73642;SDS011;61938;48.652;9.292;2024-01-06T13:35:54;4.00;;;2.80;;
73642;SDS011;61938;48.652;9.292;2024-01-06T13:38:19;5.70;;;3.10;;
73642;SDS011;61938;48.652;9.292;2024-01-06T13:40:47;5.53;;;3.17;;
73642;SDS011;61938;48.652;9.292;2024-01-06T13:43:12;6.28;;;3.20;;
73642;SDS011;61938;48.652;9.292;2024-01-06T13:45:40;4.85;;;3.20;;
73642;SDS011;61938;48.652;9.292;2024-01-06T13:48:15;6.60;;;3.10;;
73642;SDS011;61938;48.652;9.292;2024-01-06T13:50:41;7.00;;;3.70;;
73642;SDS011;61938;48.652;9.292;2024-01-06T13:53:06;4.55;;;2.83;;
73642;SDS011;61938;48.652;9.292;2024-01-06T13:55:32;4.25;;;2.80;;
73642;SDS011;61938;48.652;9.292;2024-01-06T13:57:59;6.00;;;3.40;;
73642;SDS011;61938;48.652;9.292;2024-01-06T14:00:24;7.95;;;4.10;;
73642;SDS011;61938;48.652;9.292;2024-01-06T14:02:50;6.35;;;4.00;;
73642;SDS011;61938;48.652;9.292;2024-01-06T14:05:16;4.93;;;3.22;;
73642;SDS011;61938;48.652;9.292;2024-01-06T14:07:44;6.38;;;3.20;;
73642;SDS011;61938;48.652;9.292;2024-01-06T14:10:10;5.10;;;2.63;;
73642;SDS011;61938;48.652;9.292;2024-01-06T14:12:37;6.88;;;3.30;;
73642;SDS011;61938;48.652;9.292;2024-01-06T14:15:02;4.65;;;2.88;;
73642;SDS011;61938;48.652;9.292;2024-01-06T14:17:29;5.68;;;3.08;;
73642;SDS011;61938;48.652;9.292;2024-01-06T14:19:54;13.23;;;3.40;;
73642;SDS011;61938;48.652;9.292;2024-01-06T14:22:20;9.60;;;3.63;;
73642;SDS011;61938;48.652;9.292;2024-01-06T14:24:45;7.90;;;4.57;;
73642;SDS011;61938;48.652;9.292;2024-01-06T14:27:11;7.22;;;4.22;;
73642;SDS011;61938;48.652;9.292;2024-01-06T14:29:37;9.10;;;4.93;;
73642;SDS011;61938;48.652;9.292;2024-01-06T14:32:04;7.40;;;4.55;;
73642;SDS011;61938;48.652;9.292;2024-01-06T14:34:30;6.30;;;3.72;;
73642;SDS011;61938;48.652;9.292;2024-01-06T14:36:55;7.43;;;4.38;;
73642;SDS011;61938;48.652;9.292;2024-01-06T14:39:21;6.63;;;4.40;;
73642;SDS011;61938;48.652;9.292;2024-01-06T14:41:47;8.63;;;4.78;;
73642;SDS011;61938;48.652;9.292;2024-01-06T14:44:13;7.80;;;4.95;;